Pagrindinis puslapis
METAR-TAF:

METAR-TAF

Oro uostai :

Angado oro uostas

Udžda, Marokas

platuma: 34-47N, ilguma: 001-56W, Aukštis: 468 m

Dabartinis oras

Ataskaita buvo paskelbta 37 minutes, ne 12:00 UTC
Vėjas 13 kt iš Pietų
Temperatūra 15°C
Drėgmė 48%
Slėgis 1020 hPa
Matomumas 10 km arba daugiau
Mažai debesys ne aukštis 3300 ft
Išsisklaidę debesys ne aukštis 10000 ft

METAR: GMFO 251200Z 19013KT 9999 FEW033 SCT100 15/04 Q1020 NOSIG

Laikas: 13:37 (12:37 UTC)

Prognozė

Ataskaita buvo paskelbta 1 valandą ir 37 minutes, ne 11:00 UTC
Prognozė galioja nuo 25 metu 12 UTC su 26 metu 18 UTC
Vėjas 14 kt iš Pietų/Pietvakarių
Mažai debesys ne aukštis 2600 ft
Tikimybė 30% :
Laikinai
nuo 25 metu 12 UTC su 25 metu 22 UTC
Mažai debesys ne aukštis 4000 ft, Liūtiniai kamuoliniai debesys.
perkūnija, lietus

TAF: GMFO 251100Z 2512/2618 20014KT FEW026 PROB30 TEMPO 2512/2522 TSRA FEW040CB

Orai ataskaitas ir orų prognozės (METAR, TAF).

turimą stotys yra geltonos ir raudonos taškus žemėlapyje.

Perkelti pele per norėdami pamatyti stoties vardą.

Tada spustelėkite, norėdami matyti oro stebėjimo ir prognozės.

Norėdami pakeisti žemėlapį: spustelėkite ant žalios mygtukų su juodo kryžiaus žemyn,; žalią mygtuką su brūkšneliu, jei norite nutolinti; arba žalių rodyklių gretimoms žemėlapius.


METAR-TAF: